DAL2393 KRDU-KBOS
Flight info
| Callsign | DAL2393 |
|---|---|
| Flight time | 1h 31m |
| Altitude | 37000 |
| Route | HURIC4 FEBEL GUILD JAMIE CONFR Q133 JFK ROBUC3 |
| Aircraft | A319/M-SDE3FGHIRWY/LB1 |
Departure
| Time | 2026-05-07 00:04 |
|---|---|
| Airport | Raleigh-Durham International Airport (KRDU) |
Arrival
| Time | 2026-05-07 01:35 |
|---|---|
| Airport | Boston Logan International Airport (KBOS) |
| Time | Latitude | Longitude | Altitude | Speed | Heading |
|---|---|---|---|---|---|
| 2026-05-06 23:18 | 35.87626 | -78.79441 | 392 ft | 0 kts | 316° |
| 2026-05-06 23:35 | 35.87622 | -78.79436 | 392 ft | 0 kts | 316° |
| 2026-05-06 23:35 | 35.87620 | -78.79434 | 392 ft | 1 kts | 316° |
| 2026-05-06 23:35 | 35.87613 | -78.79425 | 392 ft | 1 kts | 316° |
| 2026-05-06 23:36 | 35.87605 | -78.79416 | 392 ft | 1 kts | 291° |
| 2026-05-06 23:36 | 35.87602 | -78.79404 | 392 ft | 1 kts | 254° |
| 2026-05-06 23:36 | 35.87606 | -78.79393 | 392 ft | 1 kts | 225° |
| 2026-05-06 23:36 | 35.87604 | -78.79395 | 392 ft | 0 kts | 225° |
| 2026-05-06 23:43 | 35.87604 | -78.79396 | 392 ft | 1 kts | 225° |
| 2026-05-06 23:44 | 35.87592 | -78.79411 | 392 ft | 4 kts | 225° |
| 2026-05-06 23:44 | 35.87560 | -78.79443 | 392 ft | 8 kts | 209° |
| 2026-05-06 23:44 | 35.87512 | -78.79495 | 392 ft | 11 kts | 225° |
| 2026-05-06 23:44 | 35.87464 | -78.79554 | 392 ft | 9 kts | 225° |
| 2026-05-06 23:45 | 35.87416 | -78.79615 | 392 ft | 10 kts | 225° |
| 2026-05-06 23:45 | 35.87378 | -78.79688 | 392 ft | 10 kts | 275° |
| 2026-05-06 23:45 | 35.87425 | -78.79756 | 392 ft | 11 kts | 315° |
| 2026-05-06 23:45 | 35.87454 | -78.79791 | 392 ft | 0 kts | 314° |
| 2026-05-06 23:47 | 35.87456 | -78.79794 | 392 ft | 1 kts | 314° |
| 2026-05-06 23:47 | 35.87470 | -78.79811 | 392 ft | 5 kts | 314° |
| 2026-05-06 23:47 | 35.87490 | -78.79854 | 391 ft | 6 kts | 301° |
| 2026-05-06 23:47 | 35.87526 | -78.79889 | 391 ft | 7 kts | 345° |
| 2026-05-06 23:48 | 35.87566 | -78.79858 | 391 ft | 8 kts | 47° |
| 2026-05-06 23:48 | 35.87607 | -78.79807 | 391 ft | 9 kts | 44° |
| 2026-05-06 23:48 | 35.87651 | -78.79752 | 391 ft | 9 kts | 45° |
| 2026-05-06 23:48 | 35.87697 | -78.79695 | 391 ft | 9 kts | 45° |
| 2026-05-06 23:49 | 35.87743 | -78.79638 | 392 ft | 9 kts | 44° |
| 2026-05-06 23:49 | 35.87745 | -78.79636 | 392 ft | 0 kts | 45° |
| 2026-05-06 23:51 | 35.87747 | -78.79634 | 392 ft | 1 kts | 45° |
| 2026-05-06 23:51 | 35.87758 | -78.79621 | 392 ft | 4 kts | 45° |
| 2026-05-06 23:51 | 35.87782 | -78.79591 | 392 ft | 6 kts | 45° |
| 2026-05-06 23:51 | 35.87816 | -78.79549 | 392 ft | 8 kts | 45° |
| 2026-05-06 23:52 | 35.87860 | -78.79494 | 392 ft | 9 kts | 44° |
| 2026-05-06 23:52 | 35.87904 | -78.79440 | 392 ft | 9 kts | 45° |
| 2026-05-06 23:52 | 35.87954 | -78.79378 | 392 ft | 6 kts | 45° |
| 2026-05-06 23:52 | 35.87959 | -78.79373 | 392 ft | 0 kts | 45° |
| 2026-05-06 23:53 | 35.87959 | -78.79372 | 392 ft | 1 kts | 45° |
| 2026-05-06 23:54 | 35.87975 | -78.79353 | 392 ft | 10 kts | 45° |
| 2026-05-06 23:54 | 35.88047 | -78.79264 | 392 ft | 17 kts | 45° |
| 2026-05-06 23:54 | 35.88135 | -78.79155 | 392 ft | 19 kts | 45° |
| 2026-05-06 23:54 | 35.88236 | -78.79030 | 391 ft | 21 kts | 45° |
| 2026-05-06 23:55 | 35.88344 | -78.78896 | 391 ft | 23 kts | 45° |
| 2026-05-06 23:55 | 35.88461 | -78.78752 | 391 ft | 24 kts | 45° |
| 2026-05-06 23:55 | 35.88578 | -78.78607 | 392 ft | 24 kts | 45° |
| 2026-05-06 23:55 | 35.88696 | -78.78461 | 392 ft | 25 kts | 45° |
| 2026-05-06 23:56 | 35.88819 | -78.78309 | 392 ft | 26 kts | 45° |
| 2026-05-06 23:56 | 35.88945 | -78.78154 | 392 ft | 25 kts | 45° |
| 2026-05-06 23:56 | 35.89070 | -78.77999 | 391 ft | 25 kts | 45° |
| 2026-05-06 23:56 | 35.89175 | -78.77869 | 392 ft | 12 kts | 45° |
| 2026-05-06 23:57 | 35.89226 | -78.77806 | 392 ft | 7 kts | 45° |
| 2026-05-06 23:57 | 35.89250 | -78.77777 | 392 ft | 1 kts | 45° |
| 2026-05-06 23:57 | 35.89254 | -78.77772 | 392 ft | 0 kts | 45° |
| 2026-05-06 23:58 | 35.89257 | -78.77769 | 392 ft | 1 kts | 45° |
| 2026-05-06 23:59 | 35.89261 | -78.77763 | 392 ft | 0 kts | 45° |
| 2026-05-06 23:59 | 35.89262 | -78.77762 | 392 ft | 0 kts | 45° |
| 2026-05-06 23:59 | 35.89269 | -78.77753 | 392 ft | 3 kts | 45° |
| 2026-05-06 23:59 | 35.89293 | -78.77730 | 392 ft | 5 kts | 22° |
| 2026-05-07 00:00 | 35.89310 | -78.77738 | 392 ft | 0 kts | 314° |
| 2026-05-07 00:01 | 35.89322 | -78.77753 | 393 ft | 6 kts | 314° |
| 2026-05-07 00:02 | 35.89356 | -78.77796 | 393 ft | 7 kts | 314° |
| 2026-05-07 00:02 | 35.89351 | -78.77849 | 392 ft | 8 kts | 223° |
| 2026-05-07 00:02 | 35.89335 | -78.77867 | 392 ft | 0 kts | 224° |
| 2026-05-07 00:03 | 35.89322 | -78.77882 | 392 ft | 8 kts | 224° |
| 2026-05-07 00:03 | 35.89104 | -78.78148 | 390 ft | 83 kts | 225° |
| 2026-05-07 00:03 | 35.88537 | -78.78849 | 389 ft | 145 kts | 225° |
| 2026-05-07 00:03 | 35.87816 | -78.79770 | 943 ft | 145 kts | 226° |
| 2026-05-07 00:04 | 35.87124 | -78.80645 | 1597 ft | 143 kts | 225° |
| 2026-05-07 00:04 | 35.86399 | -78.81493 | 2187 ft | 148 kts | 225° |
| 2026-05-07 00:04 | 35.85583 | -78.82417 | 2508 ft | 170 kts | 224° |
| 2026-05-07 00:04 | 35.84644 | -78.83480 | 2818 ft | 196 kts | 225° |
| 2026-05-07 00:05 | 35.83569 | -78.84683 | 3248 ft | 222 kts | 221° |
| 2026-05-07 00:05 | 35.82083 | -78.85498 | 3741 ft | 252 kts | 190° |
| 2026-05-07 00:05 | 35.80321 | -78.85039 | 4580 ft | 274 kts | 155° |
| 2026-05-07 00:05 | 35.78960 | -78.83316 | 5435 ft | 294 kts | 120° |
| 2026-05-07 00:06 | 35.78502 | -78.80824 | 6274 ft | 308 kts | 87° |
| 2026-05-07 00:06 | 35.78930 | -78.78228 | 7109 ft | 312 kts | 69° |
| 2026-05-07 00:06 | 35.79753 | -78.75732 | 7972 ft | 316 kts | 63° |
| 2026-05-07 00:06 | 35.80687 | -78.73254 | 8809 ft | 322 kts | 63° |
| 2026-05-07 00:07 | 35.81608 | -78.70709 | 9626 ft | 328 kts | 65° |
| 2026-05-07 00:07 | 35.82472 | -78.68062 | 10238 ft | 342 kts | 68° |
| 2026-05-07 00:07 | 35.83312 | -78.65212 | 10499 ft | 366 kts | 69° |
| 2026-05-07 00:07 | 35.84134 | -78.62171 | 11008 ft | 378 kts | 71° |
| 2026-05-07 00:08 | 35.84931 | -78.59064 | 11744 ft | 383 kts | 71° |
| 2026-05-07 00:08 | 35.85721 | -78.55921 | 12528 ft | 386 kts | 71° |
| 2026-05-07 00:08 | 35.86508 | -78.52789 | 13310 ft | 389 kts | 71° |
| 2026-05-07 00:08 | 35.87321 | -78.49597 | 14053 ft | 391 kts | 71° |
| 2026-05-07 00:09 | 35.88148 | -78.46386 | 14724 ft | 395 kts | 70° |
| 2026-05-07 00:09 | 35.88993 | -78.43133 | 15371 ft | 399 kts | 70° |
| 2026-05-07 00:09 | 35.89846 | -78.39851 | 16010 ft | 404 kts | 70° |
| 2026-05-07 00:09 | 35.90704 | -78.36532 | 16643 ft | 408 kts | 70° |
| 2026-05-07 00:10 | 35.91560 | -78.33164 | 17271 ft | 414 kts | 72° |
| 2026-05-07 00:10 | 35.92112 | -78.29647 | 17887 ft | 421 kts | 82° |
| 2026-05-07 00:10 | 35.92442 | -78.26037 | 18482 ft | 425 kts | 82° |
| 2026-05-07 00:10 | 35.92785 | -78.22387 | 18937 ft | 432 kts | 81° |
| 2026-05-07 00:11 | 35.93134 | -78.18723 | 19440 ft | 438 kts | 81° |
| 2026-05-07 00:11 | 35.93494 | -78.14977 | 19975 ft | 442 kts | 81° |
| 2026-05-07 00:11 | 35.93856 | -78.11192 | 20513 ft | 446 kts | 82° |
| 2026-05-07 00:11 | 35.94221 | -78.07366 | 21054 ft | 451 kts | 82° |
| 2026-05-07 00:12 | 35.94587 | -78.03513 | 21584 ft | 455 kts | 82° |
| 2026-05-07 00:12 | 35.94954 | -77.99616 | 22111 ft | 459 kts | 82° |
| 2026-05-07 00:12 | 35.95329 | -77.95690 | 22614 ft | 463 kts | 81° |
| 2026-05-07 00:12 | 35.96002 | -77.91813 | 23170 ft | 462 kts | 71° |
| 2026-05-07 00:13 | 35.97133 | -77.88102 | 23664 ft | 461 kts | 61° |
| 2026-05-07 00:13 | 35.98696 | -77.84656 | 24070 ft | 460 kts | 52° |
| 2026-05-07 00:13 | 36.00515 | -77.81395 | 24478 ft | 462 kts | 51° |
| 2026-05-07 00:13 | 36.02342 | -77.78111 | 24884 ft | 465 kts | 51° |
| 2026-05-07 00:14 | 36.04174 | -77.74801 | 25276 ft | 468 kts | 51° |
| 2026-05-07 00:14 | 36.06014 | -77.71458 | 25664 ft | 471 kts | 52° |
| 2026-05-07 00:14 | 36.07856 | -77.68095 | 26043 ft | 474 kts | 52° |
| 2026-05-07 00:14 | 36.09709 | -77.64706 | 26419 ft | 477 kts | 52° |
| 2026-05-07 00:15 | 36.11575 | -77.61294 | 26814 ft | 480 kts | 52° |
| 2026-05-07 00:15 | 36.13458 | -77.57854 | 27154 ft | 484 kts | 52° |
| 2026-05-07 00:15 | 36.15348 | -77.54404 | 27579 ft | 485 kts | 52° |
| 2026-05-07 00:15 | 36.17251 | -77.50929 | 27973 ft | 488 kts | 52° |
| 2026-05-07 00:16 | 36.19158 | -77.47449 | 28330 ft | 491 kts | 52° |
| 2026-05-07 00:16 | 36.21076 | -77.43941 | 28671 ft | 494 kts | 52° |
| 2026-05-07 00:16 | 36.23008 | -77.40399 | 29014 ft | 497 kts | 52° |
| 2026-05-07 00:16 | 36.24942 | -77.36848 | 29351 ft | 500 kts | 52° |
| 2026-05-07 00:17 | 36.26894 | -77.33263 | 29666 ft | 502 kts | 52° |
| 2026-05-07 00:17 | 36.28850 | -77.29670 | 29983 ft | 505 kts | 52° |
| 2026-05-07 00:17 | 36.30935 | -77.26237 | 30274 ft | 503 kts | 44° |
| 2026-05-07 00:17 | 36.33402 | -77.23103 | 30489 ft | 501 kts | 36° |
| 2026-05-07 00:18 | 36.36105 | -77.20386 | 30708 ft | 500 kts | 31° |
| 2026-05-07 00:18 | 36.38859 | -77.17722 | 30965 ft | 503 kts | 31° |
| 2026-05-07 00:18 | 36.41623 | -77.15038 | 31236 ft | 505 kts | 31° |
| 2026-05-07 00:18 | 36.44344 | -77.12381 | 31607 ft | 504 kts | 31° |
| 2026-05-07 00:19 | 36.47129 | -77.09646 | 31992 ft | 503 kts | 30° |
| 2026-05-07 00:19 | 36.49832 | -77.06980 | 32362 ft | 503 kts | 30° |
| 2026-05-07 00:19 | 36.52576 | -77.04272 | 32766 ft | 502 kts | 29° |
| 2026-05-07 00:19 | 36.55312 | -77.01577 | 33108 ft | 502 kts | 28° |
| 2026-05-07 00:20 | 36.58055 | -76.98884 | 33491 ft | 502 kts | 27° |
| 2026-05-07 00:20 | 36.60796 | -76.96196 | 33868 ft | 502 kts | 27° |
| 2026-05-07 00:20 | 36.63540 | -76.93502 | 34211 ft | 501 kts | 27° |
| 2026-05-07 00:20 | 36.66273 | -76.90812 | 34554 ft | 500 kts | 27° |
| 2026-05-07 00:21 | 36.69002 | -76.88122 | 34895 ft | 499 kts | 26° |
| 2026-05-07 00:21 | 36.71725 | -76.85439 | 35219 ft | 498 kts | 26° |
| 2026-05-07 00:21 | 36.74438 | -76.82764 | 35654 ft | 495 kts | 26° |
| 2026-05-07 00:21 | 36.77134 | -76.80100 | 35998 ft | 494 kts | 26° |
| 2026-05-07 00:22 | 36.79825 | -76.77438 | 36307 ft | 493 kts | 26° |
| 2026-05-07 00:22 | 36.82505 | -76.74780 | 36604 ft | 492 kts | 26° |
| 2026-05-07 00:22 | 36.85182 | -76.72126 | 36871 ft | 492 kts | 25° |
| 2026-05-07 00:22 | 36.87860 | -76.69467 | 36947 ft | 491 kts | 25° |
| 2026-05-07 00:23 | 36.93209 | -76.64145 | 36930 ft | 490 kts | 25° |
| 2026-05-07 00:23 | 36.98521 | -76.58868 | 36917 ft | 491 kts | 25° |
| 2026-05-07 00:24 | 37.03873 | -76.53534 | 36930 ft | 492 kts | 26° |
| 2026-05-07 00:24 | 37.09221 | -76.48189 | 36936 ft | 491 kts | 26° |
| 2026-05-07 00:25 | 37.14550 | -76.42845 | 36944 ft | 490 kts | 26° |
| 2026-05-07 00:25 | 37.19868 | -76.37510 | 36970 ft | 490 kts | 26° |
| 2026-05-07 00:26 | 37.25193 | -76.32168 | 36932 ft | 490 kts | 26° |
| 2026-05-07 00:26 | 37.30526 | -76.26811 | 36934 ft | 491 kts | 26° |
| 2026-05-07 00:27 | 37.35855 | -76.21434 | 36936 ft | 491 kts | 26° |
| 2026-05-07 00:27 | 37.41187 | -76.16033 | 36939 ft | 492 kts | 26° |
| 2026-05-07 00:28 | 37.46523 | -76.10635 | 36917 ft | 492 kts | 26° |
| 2026-05-07 00:28 | 37.51855 | -76.05238 | 36932 ft | 492 kts | 26° |
| 2026-05-07 00:29 | 37.57179 | -75.99824 | 36934 ft | 492 kts | 26° |
| 2026-05-07 00:30 | 37.65359 | -75.92392 | 36932 ft | 481 kts | 20° |
| 2026-05-07 00:30 | 37.68158 | -75.90078 | 36931 ft | 481 kts | 20° |
| 2026-05-07 00:30 | 37.73762 | -75.85451 | 36934 ft | 481 kts | 20° |
| 2026-05-07 00:31 | 37.79356 | -75.80814 | 36964 ft | 481 kts | 20° |
| 2026-05-07 00:31 | 37.84950 | -75.76156 | 36925 ft | 482 kts | 21° |
| 2026-05-07 00:32 | 37.90546 | -75.71489 | 36930 ft | 481 kts | 21° |
| 2026-05-07 00:32 | 37.96134 | -75.66824 | 36932 ft | 481 kts | 21° |
| 2026-05-07 00:33 | 38.01719 | -75.62139 | 36960 ft | 481 kts | 20° |
| 2026-05-07 00:33 | 38.07305 | -75.57455 | 36902 ft | 481 kts | 20° |
| 2026-05-07 00:34 | 38.12894 | -75.52770 | 36893 ft | 482 kts | 20° |
| 2026-05-07 00:34 | 38.18493 | -75.48074 | 36889 ft | 482 kts | 20° |
| 2026-05-07 00:35 | 38.24095 | -75.43392 | 36910 ft | 478 kts | 17° |
| 2026-05-07 00:35 | 38.26977 | -75.41559 | 36874 ft | 461 kts | 8° |
| 2026-05-07 00:35 | 38.29969 | -75.40326 | 36878 ft | 444 kts | 359° |
| 2026-05-07 00:36 | 38.35951 | -75.39001 | 36887 ft | 435 kts | 355° |
| 2026-05-07 00:36 | 38.41940 | -75.37748 | 36890 ft | 435 kts | 355° |
| 2026-05-07 00:37 | 38.47919 | -75.36483 | 36924 ft | 436 kts | 355° |
| 2026-05-07 00:37 | 38.53905 | -75.35204 | 36910 ft | 436 kts | 355° |
| 2026-05-07 00:38 | 38.58877 | -75.34144 | 36895 ft | 436 kts | 355° |
| 2026-05-07 00:38 | 38.64869 | -75.32873 | 36894 ft | 436 kts | 355° |
| 2026-05-07 00:39 | 38.70860 | -75.31606 | 36915 ft | 437 kts | 354° |
| 2026-05-07 00:39 | 38.76871 | -75.30045 | 36902 ft | 455 kts | 5° |
| 2026-05-07 00:40 | 38.79834 | -75.28364 | 36899 ft | 476 kts | 15° |
| 2026-05-07 00:40 | 38.82732 | -75.26309 | 36898 ft | 477 kts | 15° |
| 2026-05-07 00:40 | 38.88539 | -75.22172 | 36932 ft | 478 kts | 14° |
| 2026-05-07 00:41 | 38.94357 | -75.18021 | 36902 ft | 479 kts | 15° |
| 2026-05-07 00:41 | 39.00185 | -75.13867 | 36890 ft | 479 kts | 14° |
| 2026-05-07 00:42 | 39.06018 | -75.09709 | 36877 ft | 480 kts | 15° |
| 2026-05-07 00:42 | 39.11864 | -75.05523 | 36859 ft | 481 kts | 15° |
| 2026-05-07 00:43 | 39.17709 | -75.01328 | 36873 ft | 481 kts | 15° |
| 2026-05-07 00:43 | 39.23547 | -74.97139 | 36900 ft | 480 kts | 15° |
| 2026-05-07 00:44 | 39.29272 | -74.92448 | 36920 ft | 494 kts | 21° |
| 2026-05-07 00:44 | 39.34891 | -74.87336 | 36881 ft | 495 kts | 21° |
| 2026-05-07 00:45 | 39.40482 | -74.82238 | 36875 ft | 495 kts | 21° |
| 2026-05-07 00:45 | 39.46119 | -74.77085 | 36875 ft | 496 kts | 21° |
| 2026-05-07 00:46 | 39.51761 | -74.71920 | 36889 ft | 497 kts | 21° |
| 2026-05-07 00:46 | 39.57405 | -74.66742 | 36876 ft | 498 kts | 21° |
| 2026-05-07 00:47 | 39.63058 | -74.61543 | 36873 ft | 498 kts | 21° |
| 2026-05-07 00:47 | 39.68714 | -74.56345 | 36869 ft | 498 kts | 21° |
| 2026-05-07 00:48 | 39.74372 | -74.51132 | 36862 ft | 499 kts | 21° |
| 2026-05-07 00:48 | 39.80030 | -74.45896 | 36866 ft | 499 kts | 21° |
| 2026-05-07 00:49 | 39.85685 | -74.40650 | 36936 ft | 499 kts | 21° |
| 2026-05-07 00:49 | 39.91351 | -74.35391 | 36821 ft | 500 kts | 21° |
| 2026-05-07 00:50 | 39.97024 | -74.30111 | 36871 ft | 501 kts | 21° |
| 2026-05-07 00:50 | 40.02700 | -74.24827 | 36873 ft | 501 kts | 21° |
| 2026-05-07 00:51 | 40.08374 | -74.19531 | 36898 ft | 502 kts | 21° |
| 2026-05-07 00:51 | 40.14006 | -74.14255 | 36878 ft | 502 kts | 21° |
| 2026-05-07 00:52 | 40.19700 | -74.08924 | 36462 ft | 505 kts | 21° |
| 2026-05-07 00:52 | 40.22550 | -74.06240 | 36016 ft | 505 kts | 22° |
| 2026-05-07 00:52 | 40.25404 | -74.03517 | 35621 ft | 507 kts | 22° |
| 2026-05-07 00:53 | 40.28249 | -74.00768 | 35190 ft | 510 kts | 23° |
| 2026-05-07 00:53 | 40.31098 | -73.97989 | 34706 ft | 511 kts | 24° |
| 2026-05-07 00:53 | 40.33947 | -73.95195 | 34275 ft | 512 kts | 24° |
| 2026-05-07 00:53 | 40.36798 | -73.92404 | 33866 ft | 513 kts | 24° |
| 2026-05-07 00:54 | 40.39669 | -73.89603 | 33379 ft | 514 kts | 24° |
| 2026-05-07 00:54 | 40.42537 | -73.86810 | 32982 ft | 515 kts | 24° |
| 2026-05-07 00:54 | 40.45417 | -73.84002 | 32512 ft | 516 kts | 25° |
| 2026-05-07 00:54 | 40.48300 | -73.81187 | 32052 ft | 517 kts | 25° |
| 2026-05-07 00:55 | 40.51190 | -73.78360 | 31605 ft | 518 kts | 25° |
| 2026-05-07 00:55 | 40.54088 | -73.75524 | 31156 ft | 519 kts | 26° |
| 2026-05-07 00:55 | 40.56989 | -73.72681 | 30721 ft | 520 kts | 26° |
| 2026-05-07 00:55 | 40.59887 | -73.69834 | 30292 ft | 518 kts | 26° |
| 2026-05-07 00:56 | 40.62767 | -73.66995 | 29906 ft | 516 kts | 26° |
| 2026-05-07 00:56 | 40.65639 | -73.64165 | 29360 ft | 517 kts | 27° |
| 2026-05-07 00:56 | 40.68538 | -73.61317 | 28868 ft | 520 kts | 27° |
| 2026-05-07 00:56 | 40.71285 | -73.58132 | 28379 ft | 529 kts | 37° |
| 2026-05-07 00:57 | 40.73889 | -73.54707 | 27909 ft | 533 kts | 37° |
| 2026-05-07 00:57 | 40.76525 | -73.51233 | 27439 ft | 535 kts | 37° |
| 2026-05-07 00:57 | 40.79112 | -73.47805 | 27063 ft | 533 kts | 37° |
| 2026-05-07 00:57 | 40.81702 | -73.44361 | 26828 ft | 533 kts | 37° |
| 2026-05-07 00:58 | 40.84308 | -73.40898 | 26859 ft | 533 kts | 37° |
| 2026-05-07 00:58 | 40.86934 | -73.37409 | 26851 ft | 534 kts | 37° |
| 2026-05-07 00:58 | 40.89554 | -73.33922 | 26857 ft | 534 kts | 37° |
| 2026-05-07 00:58 | 40.92169 | -73.30436 | 26860 ft | 534 kts | 37° |
| 2026-05-07 00:59 | 40.97401 | -73.23458 | 26892 ft | 534 kts | 37° |
| 2026-05-07 00:59 | 41.00027 | -73.19958 | 26848 ft | 534 kts | 37° |
| 2026-05-07 00:59 | 41.02649 | -73.16467 | 26861 ft | 535 kts | 37° |
| 2026-05-07 01:00 | 41.05269 | -73.12969 | 26856 ft | 535 kts | 37° |
| 2026-05-07 01:00 | 41.07891 | -73.09455 | 26857 ft | 536 kts | 37° |
| 2026-05-07 01:00 | 41.10501 | -73.05943 | 26624 ft | 532 kts | 37° |
| 2026-05-07 01:00 | 41.13083 | -73.02454 | 25872 ft | 526 kts | 37° |
| 2026-05-07 01:01 | 41.15638 | -72.99000 | 25200 ft | 522 kts | 37° |
| 2026-05-07 01:01 | 41.18171 | -72.95574 | 24506 ft | 517 kts | 37° |
| 2026-05-07 01:01 | 41.20554 | -72.91999 | 23840 ft | 520 kts | 46° |
| 2026-05-07 01:01 | 41.22520 | -72.87959 | 23193 ft | 523 kts | 57° |
| 2026-05-07 01:02 | 41.24170 | -72.83675 | 22510 ft | 518 kts | 59° |
| 2026-05-07 01:02 | 41.25767 | -72.79490 | 21896 ft | 511 kts | 59° |
| 2026-05-07 01:02 | 41.27361 | -72.75306 | 21492 ft | 500 kts | 59° |
| 2026-05-07 01:02 | 41.28914 | -72.71231 | 21121 ft | 490 kts | 59° |
| 2026-05-07 01:03 | 41.30448 | -72.67215 | 20705 ft | 483 kts | 60° |
| 2026-05-07 01:03 | 41.31962 | -72.63258 | 20238 ft | 478 kts | 60° |
| 2026-05-07 01:03 | 41.33460 | -72.59339 | 19778 ft | 472 kts | 60° |
| 2026-05-07 01:03 | 41.34938 | -72.55456 | 19378 ft | 467 kts | 61° |
| 2026-05-07 01:04 | 41.36393 | -72.51623 | 18956 ft | 461 kts | 62° |
| 2026-05-07 01:04 | 41.37830 | -72.47827 | 18539 ft | 456 kts | 62° |
| 2026-05-07 01:04 | 41.39245 | -72.44070 | 18115 ft | 451 kts | 62° |
| 2026-05-07 01:04 | 41.40642 | -72.40351 | 17624 ft | 447 kts | 62° |
| 2026-05-07 01:05 | 41.42028 | -72.36666 | 17166 ft | 443 kts | 62° |
| 2026-05-07 01:05 | 41.43408 | -72.33001 | 17003 ft | 441 kts | 62° |
| 2026-05-07 01:05 | 41.44792 | -72.29335 | 17044 ft | 443 kts | 62° |
| 2026-05-07 01:05 | 41.46170 | -72.25670 | 17036 ft | 443 kts | 62° |
| 2026-05-07 01:06 | 41.47547 | -72.22000 | 17037 ft | 443 kts | 63° |
| 2026-05-07 01:06 | 41.48920 | -72.18322 | 17033 ft | 443 kts | 63° |
| 2026-05-07 01:06 | 41.50309 | -72.14558 | 17031 ft | 464 kts | 63° |
| 2026-05-07 01:06 | 41.51751 | -72.10623 | 17040 ft | 476 kts | 63° |
| 2026-05-07 01:07 | 41.53201 | -72.06643 | 17033 ft | 479 kts | 64° |
| 2026-05-07 01:07 | 41.54656 | -72.02637 | 17032 ft | 479 kts | 64° |
| 2026-05-07 01:07 | 41.56076 | -71.98664 | 17035 ft | 480 kts | 65° |
| 2026-05-07 01:07 | 41.57415 | -71.94585 | 17043 ft | 480 kts | 67° |
| 2026-05-07 01:08 | 41.58662 | -71.90450 | 17019 ft | 480 kts | 69° |
| 2026-05-07 01:08 | 41.59857 | -71.86281 | 17042 ft | 481 kts | 70° |
| 2026-05-07 01:08 | 41.61031 | -71.82110 | 17045 ft | 481 kts | 70° |
| 2026-05-07 01:08 | 41.62216 | -71.77915 | 17041 ft | 481 kts | 70° |
| 2026-05-07 01:09 | 41.63409 | -71.73754 | 17039 ft | 481 kts | 69° |
| 2026-05-07 01:09 | 41.64629 | -71.69580 | 17053 ft | 480 kts | 69° |
| 2026-05-07 01:09 | 41.65858 | -71.65424 | 17049 ft | 481 kts | 69° |
| 2026-05-07 01:09 | 41.67091 | -71.61269 | 17057 ft | 480 kts | 69° |
| 2026-05-07 01:10 | 41.68322 | -71.57118 | 16900 ft | 480 kts | 69° |
| 2026-05-07 01:10 | 41.69547 | -71.52968 | 16568 ft | 478 kts | 69° |
| 2026-05-07 01:10 | 41.70758 | -71.48833 | 16193 ft | 476 kts | 69° |
| 2026-05-07 01:10 | 41.71957 | -71.44720 | 15837 ft | 474 kts | 69° |
| 2026-05-07 01:11 | 41.73421 | -71.40778 | 15469 ft | 471 kts | 60° |
| 2026-05-07 01:11 | 41.75040 | -71.36975 | 15078 ft | 469 kts | 59° |
| 2026-05-07 01:11 | 41.76655 | -71.33184 | 14650 ft | 466 kts | 59° |
| 2026-05-07 01:11 | 41.78237 | -71.29477 | 14219 ft | 463 kts | 59° |
| 2026-05-07 01:12 | 41.79849 | -71.25695 | 13726 ft | 460 kts | 59° |
| 2026-05-07 01:12 | 41.81408 | -71.22035 | 13133 ft | 456 kts | 59° |
| 2026-05-07 01:12 | 41.82971 | -71.18369 | 12559 ft | 451 kts | 59° |
| 2026-05-07 01:12 | 41.84519 | -71.14730 | 12049 ft | 447 kts | 59° |
| 2026-05-07 01:13 | 41.86050 | -71.11129 | 11575 ft | 442 kts | 59° |
| 2026-05-07 01:13 | 41.87571 | -71.07587 | 11093 ft | 434 kts | 59° |
| 2026-05-07 01:13 | 41.89072 | -71.04118 | 10600 ft | 424 kts | 59° |
| 2026-05-07 01:13 | 41.90528 | -71.00758 | 10283 ft | 410 kts | 58° |
| 2026-05-07 01:14 | 41.91936 | -70.97500 | 10044 ft | 395 kts | 59° |
| 2026-05-07 01:14 | 41.93286 | -70.94366 | 9808 ft | 382 kts | 59° |
| 2026-05-07 01:14 | 41.94595 | -70.91327 | 9558 ft | 370 kts | 58° |
| 2026-05-07 01:14 | 41.95865 | -70.88377 | 9287 ft | 360 kts | 59° |
| 2026-05-07 01:15 | 41.97102 | -70.85496 | 9010 ft | 351 kts | 58° |
| 2026-05-07 01:15 | 41.98304 | -70.82690 | 8754 ft | 343 kts | 58° |
| 2026-05-07 01:15 | 41.99483 | -70.79940 | 8495 ft | 335 kts | 58° |
| 2026-05-07 01:15 | 42.00639 | -70.77262 | 8265 ft | 328 kts | 57° |
| 2026-05-07 01:16 | 42.02005 | -70.74856 | 7995 ft | 321 kts | 45° |
| 2026-05-07 01:16 | 42.03502 | -70.72640 | 7745 ft | 319 kts | 44° |
| 2026-05-07 01:16 | 42.04982 | -70.70437 | 7498 ft | 317 kts | 45° |
| 2026-05-07 01:16 | 42.06052 | -70.68831 | 7324 ft | 316 kts | 45° |
| 2026-05-07 01:17 | 42.07231 | -70.67059 | 7121 ft | 315 kts | 45° |
| 2026-05-07 01:17 | 42.08706 | -70.64834 | 6882 ft | 313 kts | 45° |
| 2026-05-07 01:17 | 42.10286 | -70.62860 | 6640 ft | 307 kts | 31° |
| 2026-05-07 01:17 | 42.12119 | -70.61468 | 6404 ft | 300 kts | 16° |
| 2026-05-07 01:18 | 42.14092 | -70.60700 | 6157 ft | 292 kts | 5° |
| 2026-05-07 01:18 | 42.16089 | -70.60165 | 5913 ft | 292 kts | 5° |
| 2026-05-07 01:18 | 42.18068 | -70.59620 | 5668 ft | 290 kts | 5° |
| 2026-05-07 01:18 | 42.20014 | -70.59076 | 5422 ft | 288 kts | 6° |
| 2026-05-07 01:19 | 42.21975 | -70.58521 | 5171 ft | 287 kts | 6° |
| 2026-05-07 01:19 | 42.23924 | -70.57967 | 5015 ft | 286 kts | 6° |
| 2026-05-07 01:19 | 42.25869 | -70.57418 | 5008 ft | 286 kts | 6° |
| 2026-05-07 01:19 | 42.27818 | -70.56870 | 5013 ft | 286 kts | 6° |
| 2026-05-07 01:20 | 42.29771 | -70.56353 | 5013 ft | 284 kts | 1° |
| 2026-05-07 01:20 | 42.31702 | -70.56419 | 5008 ft | 274 kts | 342° |
| 2026-05-07 01:20 | 42.33476 | -70.57220 | 5008 ft | 265 kts | 326° |
| 2026-05-07 01:20 | 42.34950 | -70.58619 | 5008 ft | 256 kts | 310° |
| 2026-05-07 01:21 | 42.36214 | -70.60303 | 5025 ft | 256 kts | 309° |
| 2026-05-07 01:21 | 42.37487 | -70.61991 | 5006 ft | 257 kts | 310° |
| 2026-05-07 01:21 | 42.38769 | -70.63677 | 5005 ft | 257 kts | 310° |
| 2026-05-07 01:21 | 42.40052 | -70.65357 | 5004 ft | 257 kts | 310° |
| 2026-05-07 01:22 | 42.41335 | -70.67038 | 4995 ft | 257 kts | 310° |
| 2026-05-07 01:22 | 42.42621 | -70.68725 | 4997 ft | 257 kts | 310° |
| 2026-05-07 01:22 | 42.43906 | -70.70409 | 4995 ft | 257 kts | 310° |
| 2026-05-07 01:22 | 42.44759 | -70.71530 | 4997 ft | 257 kts | 310° |
| 2026-05-07 01:23 | 42.46045 | -70.73225 | 4997 ft | 258 kts | 310° |
| 2026-05-07 01:23 | 42.47326 | -70.74914 | 4997 ft | 257 kts | 310° |
| 2026-05-07 01:23 | 42.48601 | -70.76597 | 4994 ft | 251 kts | 309° |
| 2026-05-07 01:23 | 42.49810 | -70.78182 | 4994 ft | 233 kts | 309° |
| 2026-05-07 01:24 | 42.50947 | -70.79672 | 4997 ft | 224 kts | 309° |
| 2026-05-07 01:24 | 42.52212 | -70.80941 | 4995 ft | 233 kts | 329° |
| 2026-05-07 01:24 | 42.53840 | -70.81342 | 4996 ft | 248 kts | 359° |
| 2026-05-07 01:24 | 42.55534 | -70.80719 | 5001 ft | 256 kts | 14° |
| 2026-05-07 01:25 | 42.57205 | -70.79901 | 4993 ft | 251 kts | 14° |
| 2026-05-07 01:25 | 42.58820 | -70.79099 | 5002 ft | 245 kts | 14° |
| 2026-05-07 01:25 | 42.60423 | -70.78295 | 4773 ft | 245 kts | 15° |
| 2026-05-07 01:25 | 42.62010 | -70.77490 | 4530 ft | 242 kts | 15° |
| 2026-05-07 01:26 | 42.63577 | -70.76688 | 4272 ft | 240 kts | 15° |
| 2026-05-07 01:26 | 42.65144 | -70.75958 | 4053 ft | 235 kts | 4° |
| 2026-05-07 01:26 | 42.66709 | -70.75984 | 3991 ft | 224 kts | 338° |
| 2026-05-07 01:26 | 42.68086 | -70.76893 | 3995 ft | 213 kts | 313° |
| 2026-05-07 01:27 | 42.68987 | -70.78378 | 3993 ft | 203 kts | 292° |
| 2026-05-07 01:27 | 42.69404 | -70.80174 | 3993 ft | 198 kts | 273° |
| 2026-05-07 01:27 | 42.69326 | -70.82025 | 3992 ft | 196 kts | 255° |
| 2026-05-07 01:27 | 42.68778 | -70.83718 | 3995 ft | 197 kts | 237° |
| 2026-05-07 01:28 | 42.67815 | -70.85063 | 3994 ft | 202 kts | 219° |
| 2026-05-07 01:28 | 42.66530 | -70.85898 | 4000 ft | 208 kts | 205° |
| 2026-05-07 01:28 | 42.65163 | -70.86561 | 3996 ft | 209 kts | 205° |
| 2026-05-07 01:28 | 42.63797 | -70.87228 | 3998 ft | 209 kts | 205° |
| 2026-05-07 01:29 | 42.62432 | -70.87894 | 3998 ft | 208 kts | 205° |
| 2026-05-07 01:29 | 42.61067 | -70.88561 | 3999 ft | 210 kts | 205° |
| 2026-05-07 01:29 | 42.59687 | -70.89235 | 3991 ft | 210 kts | 205° |
| 2026-05-07 01:29 | 42.58320 | -70.89901 | 3994 ft | 206 kts | 206° |
| 2026-05-07 01:30 | 42.57005 | -70.90540 | 3964 ft | 199 kts | 206° |
| 2026-05-07 01:30 | 42.55711 | -70.91172 | 3786 ft | 197 kts | 206° |
| 2026-05-07 01:30 | 42.54426 | -70.91799 | 3553 ft | 195 kts | 206° |
| 2026-05-07 01:30 | 42.53173 | -70.92409 | 3311 ft | 193 kts | 207° |
| 2026-05-07 01:31 | 42.51912 | -70.93023 | 3060 ft | 192 kts | 206° |
| 2026-05-07 01:31 | 42.50664 | -70.93629 | 2800 ft | 187 kts | 206° |
| 2026-05-07 01:31 | 42.49472 | -70.94207 | 2560 ft | 178 kts | 207° |
| 2026-05-07 01:31 | 42.48328 | -70.94763 | 2332 ft | 172 kts | 207° |
| 2026-05-07 01:32 | 42.47220 | -70.95302 | 2119 ft | 166 kts | 207° |
| 2026-05-07 01:32 | 42.46169 | -70.95811 | 1895 ft | 155 kts | 206° |
| 2026-05-07 01:32 | 42.45186 | -70.96288 | 1691 ft | 145 kts | 207° |
| 2026-05-07 01:32 | 42.44288 | -70.96722 | 1505 ft | 130 kts | 206° |
| 2026-05-07 01:33 | 42.43459 | -70.97127 | 1340 ft | 125 kts | 205° |
| 2026-05-07 01:33 | 42.42650 | -70.97521 | 1170 ft | 124 kts | 206° |
| 2026-05-07 01:33 | 42.41844 | -70.97912 | 993 ft | 123 kts | 204° |
| 2026-05-07 01:33 | 42.41044 | -70.98308 | 828 ft | 121 kts | 203° |
| 2026-05-07 01:34 | 42.40254 | -70.98703 | 661 ft | 121 kts | 200° |
| 2026-05-07 01:34 | 42.39449 | -70.99070 | 480 ft | 123 kts | 201° |
| 2026-05-07 01:34 | 42.38648 | -70.99461 | 348 ft | 120 kts | 201° |
| 2026-05-07 01:34 | 42.37864 | -70.99850 | 170 ft | 119 kts | 201° |
| 2026-05-07 01:35 | 42.37077 | -71.00230 | 35 ft | 118 kts | 201° |
| 2026-05-07 01:35 | 42.36439 | -71.00539 | 28 ft | 71 kts | 199° |
| 2026-05-07 01:35 | 42.36156 | -71.00718 | 28 ft | 21 kts | 242° |
| 2026-05-07 01:35 | 42.36161 | -71.00849 | 29 ft | 9 kts | 293° |
| 2026-05-07 01:36 | 42.36188 | -71.00932 | 29 ft | 10 kts | 293° |
| 2026-05-07 01:36 | 42.36219 | -71.01025 | 27 ft | 11 kts | 295° |
| 2026-05-07 01:36 | 42.36251 | -71.01116 | 29 ft | 0 kts | 295° |
| 2026-05-07 01:36 | 42.36251 | -71.01117 | 29 ft | 0 kts | 295° |
| 2026-05-07 01:37 | 42.36256 | -71.01132 | 27 ft | 3 kts | 295° |
| 2026-05-07 01:37 | 42.36270 | -71.01171 | 25 ft | 6 kts | 297° |
| 2026-05-07 01:37 | 42.36297 | -71.01231 | 25 ft | 9 kts | 302° |
| 2026-05-07 01:37 | 42.36333 | -71.01309 | 28 ft | 10 kts | 302° |
| 2026-05-07 01:38 | 42.36360 | -71.01401 | 26 ft | 11 kts | 257° |
| 2026-05-07 01:38 | 42.36287 | -71.01455 | 27 ft | 13 kts | 197° |
| 2026-05-07 01:38 | 42.36198 | -71.01499 | 25 ft | 13 kts | 199° |
| 2026-05-07 01:38 | 42.36108 | -71.01542 | 30 ft | 14 kts | 199° |
| 2026-05-07 01:39 | 42.36018 | -71.01585 | 28 ft | 14 kts | 199° |
| 2026-05-07 01:39 | 42.35930 | -71.01628 | 28 ft | 12 kts | 200° |
| 2026-05-07 01:39 | 42.35902 | -71.01707 | 26 ft | 9 kts | 286° |
| 2026-05-07 01:39 | 42.35917 | -71.01784 | 26 ft | 9 kts | 282° |
| 2026-05-07 01:40 | 42.35940 | -71.01869 | 26 ft | 10 kts | 301° |
| 2026-05-07 01:40 | 42.35977 | -71.01952 | 30 ft | 10 kts | 302° |
| 2026-05-07 01:40 | 42.36009 | -71.02025 | 28 ft | 9 kts | 300° |
| 2026-05-07 01:40 | 42.36042 | -71.02100 | 26 ft | 10 kts | 301° |
| 2026-05-07 01:41 | 42.36077 | -71.02178 | 27 ft | 9 kts | 300° |
| 2026-05-07 01:41 | 42.36093 | -71.02216 | 28 ft | 5 kts | 301° |
| 2026-05-07 01:41 | 42.36113 | -71.02254 | 26 ft | 6 kts | 315° |
| 2026-05-07 01:41 | 42.36149 | -71.02284 | 31 ft | 6 kts | 330° |
| 2026-05-07 01:42 | 42.36173 | -71.02335 | 29 ft | 7 kts | 284° |
| 2026-05-07 01:42 | 42.36182 | -71.02401 | 28 ft | 7 kts | 281° |
| 2026-05-07 01:42 | 42.36185 | -71.02429 | 26 ft | 1 kts | 279° |
| 2026-05-07 01:42 | 42.36187 | -71.02440 | 26 ft | 1 kts | 280° |
| 2026-05-07 01:43 | 42.36187 | -71.02442 | 26 ft | 0 kts | 280° |